Time;durP1;ratioP1;P1;durP2;ratioP2;P2;SDS_P1;SDS_P2;PMS_P1;PMS_P2;Temp;Humidity;BMP_temperature;BMP_pressure;BME280_temperature;BME280_humidity;BME280_pressure;Samples;Min_cycle;Max_cycle;Signal;HPM_P1;HPM_P2
2022/11/23 00:00:29;;;;;;;17.55;9.00;;;6.90;99.90;;;;;;4215815;28;20043;-86
2022/11/23 00:02:30;;;;;;;16.95;8.85;;;6.90;99.90;;;;;;4229736;28;20483;-86
2022/11/23 00:04:31;;;;;;;19.77;9.10;;;6.90;99.90;;;;;;4231676;28;20047;-85
2022/11/23 00:06:33;;;;;;;18.67;9.43;;;6.90;99.90;;;;;;4215871;28;20040;-85
2022/11/23 00:08:34;;;;;;;17.05;9.52;;;7.00;99.90;;;;;;4231996;28;20118;-85
2022/11/23 00:10:35;;;;;;;16.02;8.93;;;7.00;99.90;;;;;;4231657;28;20055;-85
2022/11/23 00:12:36;;;;;;;15.40;8.82;;;5.90;99.90;;;;;;4232699;28;20040;-85
2022/11/23 00:14:37;;;;;;;18.35;9.40;;;7.00;99.90;;;;;;4249344;27;20043;-85
2022/11/23 00:16:38;;;;;;;15.50;8.50;;;7.00;99.90;;;;;;4249098;27;20491;-85
2022/11/23 00:18:38;;;;;;;20.30;9.82;;;7.00;99.90;;;;;;4249543;27;20046;-85
2022/11/23 00:20:39;;;;;;;21.13;9.20;;;7.10;99.90;;;;;;4246846;27;20114;-85
2022/11/23 00:22:40;;;;;;;15.57;9.05;;;7.00;99.90;;;;;;4250665;27;20070;-86
2022/11/23 00:24:40;;;;;;;18.48;8.95;;;7.00;99.90;;;;;;4251151;27;20144;-85
2022/11/23 00:26:42;;;;;;;17.95;8.63;;;7.00;99.90;;;;;;4235668;27;20055;-86
2022/11/23 00:28:44;;;;;;;19.45;9.10;;;7.00;99.90;;;;;;4242907;27;20065;-86
2022/11/23 00:30:49;;;;;;;17.45;9.13;;;7.00;99.90;;;;;;4250875;27;20138;-86
2022/11/23 00:32:51;;;;;;;18.08;9.32;;;7.00;99.90;;;;;;4232945;28;20083;-85
2022/11/23 00:34:52;;;;;;;19.52;9.52;;;7.00;99.90;;;;;;4233052;28;20534;-85
2022/11/23 00:36:54;;;;;;;20.52;10.00;;;7.00;99.90;;;;;;4232835;28;20564;-86
2022/11/23 00:38:56;;;;;;;18.77;10.35;;;6.20;99.90;;;;;;4200215;28;20052;-85
2022/11/23 00:40:59;;;;;;;19.90;9.45;;;7.00;99.90;;;;;;4226264;28;20133;-85
2022/11/23 00:43:00;;;;;;;17.63;9.50;;;7.10;99.90;;;;;;4232396;28;20127;-86
2022/11/23 00:45:02;;;;;;;21.23;10.65;;;7.00;99.90;;;;;;4250870;27;20475;-86
2022/11/23 00:47:03;;;;;;;16.83;9.13;;;7.00;99.90;;;;;;4250494;27;20047;-85
2022/11/23 00:49:05;;;;;;;21.52;9.55;;;7.00;99.90;;;;;;4251184;27;20061;-86
2022/11/23 00:51:08;;;;;;;19.00;9.98;;;7.00;99.90;;;;;;4231021;28;20081;-85
2022/11/23 00:53:09;;;;;;;17.60;10.02;;;7.00;99.90;;;;;;4247730;27;20058;-85
2022/11/23 00:55:10;;;;;;;21.30;9.95;;;7.10;99.90;;;;;;4230502;28;20054;-85
2022/11/23 00:57:12;;;;;;;20.75;9.60;;;7.10;99.90;;;;;;4230288;28;20240;-86
2022/11/23 00:59:12;;;;;;;19.30;9.63;;;7.10;99.90;;;;;;4230257;28;20149;-85
2022/11/23 01:01:15;;;;;;;22.80;9.98;;;7.10;99.90;;;;;;4230825;28;20047;-85
2022/11/23 01:03:16;;;;;;;17.15;9.05;;;7.10;99.90;;;;;;4213486;28;20048;-86
2022/11/23 01:05:18;;;;;;;22.88;10.05;;;7.10;99.90;;;;;;4246871;27;20035;-85
2022/11/23 01:07:19;;;;;;;20.90;9.95;;;7.10;99.90;;;;;;4218383;28;20149;-85
2022/11/23 01:09:23;;;;;;;22.73;10.10;;;7.10;99.90;;;;;;4232378;28;20132;-85
2022/11/23 01:11:26;;;;;;;19.08;10.52;;;7.10;99.90;;;;;;4210818;28;20040;-86
2022/11/23 01:13:27;;;;;;;20.80;10.40;;;7.10;99.90;;;;;;4245712;27;20059;-85
2022/11/23 01:15:28;;;;;;;19.65;10.05;;;7.10;99.90;;;;;;4231633;28;20091;-85
2022/11/23 01:17:29;;;;;;;21.63;9.73;;;6.20;99.90;;;;;;4247116;27;20034;-86
2022/11/23 01:19:32;;;;;;;20.25;10.32;;;7.10;99.90;;;;;;4225298;28;20051;-85
2022/11/23 01:21:35;;;;;;;18.92;10.40;;;7.10;99.90;;;;;;4231412;28;20051;-86
2022/11/23 01:23:35;;;;;;;18.48;9.70;;;7.10;99.90;;;;;;4229640;28;20054;-85
2022/11/23 01:25:36;;;;;;;23.55;10.55;;;7.10;99.90;;;;;;4221448;28;20063;-86
2022/11/23 01:27:37;;;;;;;28.65;10.82;;;7.10;99.90;;;;;;4230609;28;20097;-85
2022/11/23 01:29:38;;;;;;;24.70;9.85;;;7.10;99.90;;;;;;4230267;28;20043;-85
2022/11/23 01:31:40;;;;;;;21.58;10.57;;;7.10;99.90;;;;;;4230576;28;20112;-85
2022/11/23 01:33:41;;;;;;;22.00;11.05;;;7.10;99.90;;;;;;4230190;28;20079;-85
2022/11/23 01:35:42;;;;;;;21.27;10.18;;;7.50;99.90;;;;;;4231688;28;20036;-85
2022/11/23 01:37:43;;;;;;;20.42;10.20;;;7.20;99.90;;;;;;4235924;27;20445;-85
2022/11/23 01:39:43;;;;;;;21.00;9.95;;;7.10;99.90;;;;;;4241983;27;20046;-85
2022/11/23 01:41:45;;;;;;;21.98;9.82;;;7.10;99.90;;;;;;4231397;28;20055;-85
2022/11/23 01:43:47;;;;;;;19.48;10.05;;;6.70;99.90;;;;;;4240059;27;20040;-85
2022/11/23 01:45:58;;;;;;;17.60;10.13;;;7.20;99.90;;;;;;4198327;28;20055;-85
2022/11/23 01:48:02;;;;;;;23.38;10.35;;;7.20;99.90;;;;;;4215171;28;20083;-85
2022/11/23 01:50:03;;;;;;;24.75;10.00;;;7.20;99.90;;;;;;4209637;28;20507;-85
2022/11/23 01:52:22;;;;;;;17.83;10.05;;;7.20;99.90;;;;;;4230958;28;20054;-85
2022/11/23 01:54:45;;;;;;;18.02;9.52;;;7.20;99.90;;;;;;4229246;28;20061;-85
2022/11/23 01:56:52;;;;;;;21.58;10.00;;;7.30;99.90;;;;;;4248111;27;20499;-85
2022/11/23 01:58:57;;;;;;;24.15;9.32;;;7.20;99.90;;;;;;4247989;27;20105;-86
2022/11/23 02:00:58;;;;;;;20.13;9.55;;;7.30;99.90;;;;;;4229463;28;20124;-85
2022/11/23 02:03:00;;;;;;;23.38;9.13;;;7.30;99.90;;;;;;4212426;28;20055;-86
2022/11/23 02:05:01;;;;;;;21.45;10.32;;;7.30;99.90;;;;;;4247681;27;20572;-86
2022/11/23 02:07:03;;;;;;;18.75;9.35;;;7.30;99.90;;;;;;4247520;27;20107;-85
2022/11/23 02:09:06;;;;;;;22.60;9.50;;;7.30;99.90;;;;;;4203630;28;20064;-85
2022/11/23 02:11:10;;;;;;;17.63;9.00;;;7.30;99.90;;;;;;4245621;28;20074;-85
2022/11/23 02:13:12;;;;;;;19.40;8.80;;;7.30;99.90;;;;;;4228637;28;20109;-84
2022/11/23 02:15:13;;;;;;;17.85;9.13;;;7.30;99.90;;;;;;4229528;28;20059;-85
2022/11/23 02:17:15;;;;;;;19.70;8.38;;;7.30;99.90;;;;;;4229312;28;20183;-85
2022/11/23 02:19:33;;;;;;;18.65;8.63;;;7.40;99.90;;;;;;4229211;28;20124;-85
2022/11/23 02:21:35;;;;;;;17.52;8.85;;;7.30;99.90;;;;;;4229411;28;20456;-85
2022/11/23 02:23:48;;;;;;;18.80;7.45;;;7.40;99.90;;;;;;4247198;28;20051;-85
2022/11/23 02:26:22;;;;;;;15.75;9.00;;;7.40;99.90;;;;;;4227429;28;20047;-85
2022/11/23 02:28:28;;;;;;;19.80;7.70;;;7.40;99.90;;;;;;4229960;28;20040;-85
2022/11/23 02:30:31;;;;;;;15.80;7.82;;;7.40;99.90;;;;;;4249385;28;20143;-85
2022/11/23 02:32:33;;;;;;;15.32;7.70;;;7.40;99.90;;;;;;4241782;28;20515;-85
2022/11/23 02:34:34;;;;;;;19.13;8.18;;;7.40;99.90;;;;;;4222136;28;20059;-85
2022/11/23 02:36:41;;;;;;;19.00;7.88;;;7.40;99.90;;;;;;4231194;28;20068;-85
2022/11/23 02:38:43;;;;;;;18.90;8.63;;;7.50;99.90;;;;;;4232502;28;20048;-85
2022/11/23 02:40:44;;;;;;;19.02;8.20;;;7.50;99.90;;;;;;4206131;28;20051;-85
2022/11/23 02:42:47;;;;;;;16.10;8.52;;;7.50;99.90;;;;;;4247519;28;20043;-85
2022/11/23 02:45:25;;;;;;;19.83;8.93;;;7.50;99.90;;;;;;4212801;28;20052;-85
2022/11/23 02:47:26;;;;;;;23.05;9.18;;;7.50;99.90;;;;;;4238615;28;20119;-85
2022/11/23 02:49:27;;;;;;;17.13;8.07;;;7.50;99.90;;;;;;4219052;28;20058;-85
2022/11/23 02:51:28;;;;;;;23.55;9.85;;;7.50;99.90;;;;;;4247731;28;20051;-86
2022/11/23 02:53:29;;;;;;;18.73;8.73;;;7.60;99.90;;;;;;4241844;28;20047;-85
2022/11/23 02:55:31;;;;;;;24.52;8.70;;;7.60;99.90;;;;;;4229174;28;20047;-85
2022/11/23 02:57:32;;;;;;;21.73;8.75;;;7.60;99.90;;;;;;4229244;28;20043;-86
2022/11/23 02:59:33;;;;;;;16.75;7.55;;;7.60;99.90;;;;;;4247398;28;20119;-85
2022/11/23 03:50:34;;;;;;;16.38;6.95;;;7.70;99.90;;;;;;3466998;27;20041;-85
2022/11/23 03:59:06;;;;;;;14.95;6.97;;;7.70;99.90;;;;;;4248966;27;20050;-85
2022/11/23 04:01:07;;;;;;;17.13;7.38;;;7.70;99.90;;;;;;4226748;28;20051;-85
2022/11/23 04:03:08;;;;;;;17.75;7.93;;;7.70;99.90;;;;;;4214429;28;20112;-85
2022/11/23 04:05:08;;;;;;;15.93;8.50;;;7.70;99.90;;;;;;4231381;28;20043;-85
2022/11/23 04:07:10;;;;;;;17.15;8.38;;;7.70;99.90;;;;;;4230059;28;20415;-85
2022/11/23 04:09:12;;;;;;;21.15;7.97;;;7.70;99.90;;;;;;4250637;27;20471;-85
2022/11/23 04:11:12;;;;;;;23.88;8.50;;;7.70;99.90;;;;;;4251233;27;20081;-85
2022/11/23 04:13:14;;;;;;;21.13;8.10;;;7.70;99.90;;;;;;4233286;28;20039;-85
2022/11/23 04:15:15;;;;;;;16.83;7.25;;;7.70;99.90;;;;;;4251397;27;20043;-85
2022/11/23 04:17:17;;;;;;;19.08;8.75;;;7.70;99.90;;;;;;4251153;27;20045;-84
2022/11/23 04:19:17;;;;;;;19.77;8.65;;;7.70;99.90;;;;;;4232128;28;20388;-85
2022/11/23 04:21:20;;;;;;;20.77;8.40;;;7.70;99.90;;;;;;4216510;28;20123;-85
2022/11/23 04:23:21;;;;;;;22.67;9.02;;;7.70;99.90;;;;;;4234362;28;20057;-85
2022/11/23 04:25:21;;;;;;;19.48;8.30;;;7.70;99.90;;;;;;4234873;28;20110;-86
2022/11/23 04:27:22;;;;;;;19.60;8.25;;;8.20;99.90;;;;;;4218994;28;20420;-86
2022/11/23 04:29:23;;;;;;;23.50;9.27;;;7.70;99.90;;;;;;4229054;28;20087;-86
2022/11/23 04:31:24;;;;;;;25.63;8.75;;;7.70;99.90;;;;;;4252436;27;20126;-86
2022/11/23 04:33:24;;;;;;;24.13;10.00;;;7.70;99.90;;;;;;4235838;28;20040;-86
2022/11/23 04:35:26;;;;;;;22.35;8.02;;;7.70;99.90;;;;;;4235129;28;20594;-86
2022/11/23 04:37:27;;;;;;;20.88;8.30;;;7.70;99.90;;;;;;4234921;28;20407;-86
2022/11/23 04:39:27;;;;;;;22.73;9.20;;;7.90;99.90;;;;;;4234537;28;20198;-86
2022/11/23 04:41:29;;;;;;;25.85;10.38;;;7.70;99.90;;;;;;4233301;28;20042;-86
2022/11/23 04:43:30;;;;;;;23.00;9.10;;;7.70;99.90;;;;;;4231752;28;20047;-88
2022/11/23 04:45:31;;;;;;;21.77;9.25;;;7.80;99.90;;;;;;4230182;28;20067;-86
2022/11/23 04:47:32;;;;;;;21.95;10.00;;;7.70;99.90;;;;;;4234016;28;20044;-86
2022/11/23 04:49:33;;;;;;;26.25;10.10;;;7.90;99.90;;;;;;4230880;28;20040;-87
2022/11/23 04:51:33;;;;;;;21.63;9.52;;;7.70;99.90;;;;;;4233939;28;20415;-86
2022/11/23 04:53:35;;;;;;;26.67;9.40;;;7.80;99.90;;;;;;4220782;28;20040;-85
2022/11/23 04:55:36;;;;;;;20.30;9.68;;;7.80;99.90;;;;;;4235533;28;20096;-86
2022/11/23 04:57:37;;;;;;;25.70;10.25;;;7.80;99.90;;;;;;4223072;28;20424;-85
2022/11/23 04:59:38;;;;;;;24.05;9.35;;;7.80;99.90;;;;;;4238539;28;20408;-86
2022/11/23 05:01:39;;;;;;;29.30;10.98;;;8.30;99.90;;;;;;4250523;27;20052;-86
2022/11/23 05:03:39;;;;;;;26.05;9.35;;;7.90;99.90;;;;;;4213020;28;20078;-87
2022/11/23 05:05:42;;;;;;;22.15;9.18;;;7.80;99.90;;;;;;4248717;27;20077;-86
2022/11/23 05:07:43;;;;;;;26.55;11.00;;;7.80;99.90;;;;;;4248666;27;20432;-86
2022/11/23 05:09:45;;;;;;;27.25;10.02;;;7.70;99.90;;;;;;4248747;27;20398;-86
2022/11/23 05:11:46;;;;;;;25.83;10.52;;;8.10;99.90;;;;;;4230388;28;20043;-85
2022/11/23 05:13:48;;;;;;;23.83;10.88;;;7.80;99.90;;;;;;4248122;27;20118;-86
2022/11/23 05:15:48;;;;;;;29.98;10.90;;;7.80;99.90;;;;;;4229995;28;20059;-88
2022/11/23 05:17:49;;;;;;;24.88;9.48;;;7.80;99.90;;;;;;4230456;28;20043;-85
2022/11/23 05:19:50;;;;;;;23.30;10.10;;;7.90;99.90;;;;;;4244800;27;20050;-86
2022/11/23 05:21:50;;;;;;;26.30;10.55;;;7.80;99.90;;;;;;4230027;28;20414;-86
2022/11/23 05:23:51;;;;;;;23.15;10.48;;;7.80;99.90;;;;;;4248596;27;20118;-86
2022/11/23 05:25:52;;;;;;;27.35;11.02;;;7.80;99.90;;;;;;4230085;28;20074;-85
2022/11/23 05:27:54;;;;;;;24.45;10.63;;;7.80;99.90;;;;;;4229886;28;20408;-85
2022/11/23 05:29:54;;;;;;;34.10;10.60;;;7.80;99.90;;;;;;4230462;28;20044;-86
2022/11/23 05:31:55;;;;;;;25.38;10.57;;;7.90;99.90;;;;;;4230625;28;20108;-86
2022/11/23 05:33:55;;;;;;;21.98;9.88;;;7.80;99.90;;;;;;4230714;28;20056;-87
2022/11/23 05:35:56;;;;;;;25.50;10.70;;;7.80;99.90;;;;;;4226534;28;20048;-85
2022/11/23 05:37:59;;;;;;;23.10;10.95;;;7.80;99.90;;;;;;4214396;28;20440;-87
2022/11/23 05:40:00;;;;;;;23.92;10.75;;;7.80;99.90;;;;;;4217018;28;20050;-87
2022/11/23 05:42:01;;;;;;;33.25;12.27;;;7.80;99.90;;;;;;4215106;28;20054;-85
2022/11/23 05:44:01;;;;;;;25.63;10.75;;;7.80;99.90;;;;;;4231094;28;20579;-85
2022/11/23 05:46:03;;;;;;;23.33;10.40;;;7.90;99.90;;;;;;4231330;28;20130;-86
2022/11/23 05:48:04;;;;;;;25.83;11.35;;;7.80;99.90;;;;;;4214805;28;20044;-86
2022/11/23 05:50:05;;;;;;;28.38;11.38;;;7.90;99.90;;;;;;4214828;28;20526;-85
2022/11/23 05:52:06;;;;;;;23.17;10.48;;;7.80;99.90;;;;;;4239748;27;20047;-86
2022/11/23 05:54:07;;;;;;;24.48;11.30;;;7.80;99.90;;;;;;4215877;28;20102;-85
2022/11/23 05:56:09;;;;;;;24.98;10.80;;;7.90;99.90;;;;;;4226295;28;20059;-85
2022/11/23 05:58:09;;;;;;;26.70;10.88;;;7.90;99.90;;;;;;4221305;28;20537;-85
2022/11/23 06:00:10;;;;;;;25.90;10.82;;;8.00;99.90;;;;;;4234338;28;20099;-86
2022/11/23 06:02:12;;;;;;;23.02;10.55;;;7.90;99.90;;;;;;4233627;28;20046;-85
2022/11/23 06:04:13;;;;;;;24.38;10.52;;;8.30;99.90;;;;;;4233356;28;20055;-85
2022/11/23 06:06:14;;;;;;;25.27;10.55;;;7.90;99.90;;;;;;4199854;28;20489;-86
2022/11/23 06:08:14;;;;;;;25.35;11.93;;;7.90;99.90;;;;;;4233631;28;20126;-85
2022/11/23 06:10:16;;;;;;;23.40;11.32;;;7.90;99.90;;;;;;4237768;28;20108;-86
2022/11/23 06:12:18;;;;;;;31.05;11.48;;;7.90;99.90;;;;;;4236609;28;20068;-85
2022/11/23 06:14:18;;;;;;;24.67;10.70;;;8.40;99.90;;;;;;4237467;28;20051;-85
2022/11/23 06:16:19;;;;;;;28.70;11.77;;;8.00;99.90;;;;;;4237880;28;20111;-86
2022/11/23 06:18:20;;;;;;;24.00;10.68;;;8.00;99.90;;;;;;4235435;28;20098;-85
2022/11/23 06:20:20;;;;;;;23.73;11.50;;;8.10;99.90;;;;;;4230219;28;20173;-86
2022/11/23 06:22:21;;;;;;;25.00;10.63;;;8.00;99.90;;;;;;4218574;28;20059;-85
2022/11/23 06:24:25;;;;;;;25.20;11.15;;;8.50;99.90;;;;;;4231050;28;20047;-85
2022/11/23 06:26:26;;;;;;;25.13;10.45;;;8.00;99.90;;;;;;4230310;28;20162;-86
2022/11/23 06:28:27;;;;;;;25.35;10.43;;;8.00;99.90;;;;;;4231820;28;20058;-85
2022/11/23 06:30:29;;;;;;;26.55;10.57;;;8.00;99.90;;;;;;4214276;28;20108;-85
2022/11/23 06:32:29;;;;;;;28.55;10.70;;;8.50;99.90;;;;;;4231250;28;20101;-86
2022/11/23 06:34:30;;;;;;;27.58;10.35;;;8.00;99.90;;;;;;4231739;28;20039;-86
2022/11/23 06:36:31;;;;;;;17.40;9.02;;;8.00;99.90;;;;;;4206123;28;20512;-85
2022/11/23 06:38:32;;;;;;;28.45;11.18;;;8.30;99.90;;;;;;4222995;28;20046;-86
2022/11/23 06:40:33;;;;;;;20.50;9.50;;;8.10;99.90;;;;;;4222806;28;20136;-85
2022/11/23 06:42:34;;;;;;;21.05;9.45;;;8.00;99.90;;;;;;4232030;28;20503;-85
2022/11/23 06:44:36;;;;;;;26.85;9.40;;;8.00;99.90;;;;;;4232541;28;20051;-85
2022/11/23 06:46:38;;;;;;;20.90;8.40;;;8.00;99.90;;;;;;4216062;28;20520;-86
2022/11/23 06:48:41;;;;;;;23.83;9.13;;;8.00;99.90;;;;;;4198346;28;20493;-86
2022/11/23 06:50:42;;;;;;;21.17;8.35;;;8.10;99.90;;;;;;4223417;28;20139;-86
2022/11/23 06:52:43;;;;;;;24.27;9.02;;;8.00;99.90;;;;;;4225035;28;20044;-86
2022/11/23 06:54:43;;;;;;;23.15;8.65;;;8.00;99.90;;;;;;4234104;28;20488;-85
2022/11/23 06:56:44;;;;;;;23.20;8.27;;;8.00;99.90;;;;;;4229555;28;20066;-86
2022/11/23 06:58:45;;;;;;;26.48;8.60;;;8.00;99.90;;;;;;4218834;28;20602;-86
2022/11/23 07:00:45;;;;;;;16.60;8.02;;;8.20;99.90;;;;;;4252149;27;20032;-86
2022/11/23 07:02:53;;;;;;;16.30;7.88;;;8.00;99.90;;;;;;4234699;28;20117;-86
2022/11/23 07:04:54;;;;;;;20.50;8.00;;;8.20;99.90;;;;;;4224750;28;20507;-86
2022/11/23 07:06:55;;;;;;;18.83;8.02;;;8.00;99.90;;;;;;4238008;27;20036;-85
2022/11/23 07:08:57;;;;;;;22.20;8.02;;;8.00;99.90;;;;;;4234441;28;20045;-85
2022/11/23 07:11:02;;;;;;;15.05;6.68;;;8.00;99.90;;;;;;4234238;28;20063;-86
2022/11/23 07:13:04;;;;;;;17.65;7.43;;;8.00;99.90;;;;;;4233886;28;20056;-86
2022/11/23 07:15:06;;;;;;;17.17;6.88;;;8.40;99.90;;;;;;4217220;28;20631;-86
2022/11/23 07:17:07;;;;;;;15.07;6.20;;;7.90;99.90;;;;;;4233490;28;20044;-86
2022/11/23 07:19:08;;;;;;;14.75;7.28;;;8.00;99.90;;;;;;4215942;28;20050;-86
2022/11/23 07:21:09;;;;;;;16.92;6.90;;;7.90;99.90;;;;;;4231434;28;20059;-86
2022/11/23 07:23:10;;;;;;;12.88;6.43;;;7.90;99.90;;;;;;4233267;28;20055;-86
2022/11/23 07:25:15;;;;;;;14.68;6.55;;;8.10;99.90;;;;;;4203403;28;20036;-87
2022/11/23 07:27:16;;;;;;;12.57;6.47;;;7.90;99.90;;;;;;4251206;27;20176;-87
2022/11/23 07:29:17;;;;;;;15.75;6.45;;;8.40;99.90;;;;;;4251617;27;20101;-87
2022/11/23 07:31:18;;;;;;;16.08;6.85;;;8.10;99.90;;;;;;4250352;27;20039;-87
2022/11/23 07:33:20;;;;;;;17.00;6.07;;;7.90;99.90;;;;;;4215766;28;20100;-86
2022/11/23 07:35:21;;;;;;;12.80;5.78;;;7.90;99.90;;;;;;4251153;27;20368;-87
2022/11/23 07:37:23;;;;;;;16.75;5.47;;;8.40;99.90;;;;;;4247047;27;20045;-87
2022/11/23 07:39:23;;;;;;;13.20;6.00;;;7.90;99.90;;;;;;4252067;27;20047;-88
2022/11/23 07:41:26;;;;;;;13.63;5.20;;;7.90;99.90;;;;;;4252933;27;20075;-87
2022/11/23 07:43:27;;;;;;;15.88;5.20;;;7.90;99.90;;;;;;4213320;28;20062;-88
2022/11/23 07:45:28;;;;;;;15.68;5.72;;;7.90;99.90;;;;;;4252583;27;20172;-87
2022/11/23 07:47:28;;;;;;;16.02;5.28;;;7.90;99.90;;;;;;4233615;28;20047;-88
2022/11/23 07:49:29;;;;;;;18.02;5.65;;;7.90;99.90;;;;;;4251725;27;20042;-87
2022/11/23 07:51:31;;;;;;;12.75;5.10;;;7.90;99.90;;;;;;4217916;28;20099;-88
2022/11/23 07:53:34;;;;;;;17.95;5.35;;;7.90;99.90;;;;;;4251185;27;20043;-88
2022/11/23 07:55:36;;;;;;;11.10;4.93;;;8.00;99.90;;;;;;4250207;27;20050;-88
2022/11/23 07:57:37;;;;;;;20.02;5.10;;;8.00;99.90;;;;;;4223663;28;20109;-87
2022/11/23 07:59:38;;;;;;;13.90;5.10;;;8.30;99.90;;;;;;4228725;28;20527;-88
2022/11/23 08:01:39;;;;;;;11.68;5.22;;;8.40;99.90;;;;;;4214037;28;20059;-86
2022/11/23 08:03:40;;;;;;;15.73;5.20;;;7.90;99.90;;;;;;4214362;28;20056;-86
2022/11/23 08:05:42;;;;;;;12.82;5.63;;;7.90;99.90;;;;;;4231410;28;20043;-86
2022/11/23 08:07:43;;;;;;;13.15;4.88;;;7.90;99.90;;;;;;4230244;28;20568;-86
2022/11/23 08:09:45;;;;;;;16.75;5.25;;;7.90;99.90;;;;;;4214644;28;20124;-86
2022/11/23 08:11:46;;;;;;;14.25;4.75;;;7.90;99.90;;;;;;4214530;28;20048;-86
2022/11/23 08:13:47;;;;;;;15.60;5.07;;;7.90;99.90;;;;;;4214234;28;20228;-87
2022/11/23 08:15:49;;;;;;;13.15;4.30;;;7.90;99.90;;;;;;4224458;28;20040;-87
2022/11/23 08:17:55;;;;;;;11.88;5.07;;;7.90;99.90;;;;;;4228427;28;20039;-86
2022/11/23 08:19:57;;;;;;;13.27;5.05;;;8.00;99.90;;;;;;4225333;28;20083;-86
2022/11/23 08:21:57;;;;;;;11.82;4.88;;;7.90;99.90;;;;;;4221147;28;20052;-86
2022/11/23 08:23:58;;;;;;;15.32;4.20;;;7.90;99.90;;;;;;4217781;28;20056;-86
2022/11/23 08:26:02;;;;;;;9.40;4.32;;;7.90;99.90;;;;;;4214565;28;20098;-86
2022/11/23 08:28:04;;;;;;;10.07;4.45;;;8.10;99.90;;;;;;4245719;27;20082;-85
2022/11/23 08:30:05;;;;;;;13.63;4.80;;;7.90;99.90;;;;;;4226690;28;20520;-86
2022/11/23 08:32:06;;;;;;;16.77;6.28;;;8.00;99.90;;;;;;4244107;27;20039;-86
2022/11/23 08:34:06;;;;;;;12.25;4.25;;;7.90;99.90;;;;;;4214923;28;20058;-86
2022/11/23 08:36:08;;;;;;;15.70;4.93;;;8.00;99.90;;;;;;4215662;28;20134;-86
2022/11/23 08:38:10;;;;;;;13.10;4.07;;;8.00;99.90;;;;;;4229275;28;20097;-86
2022/11/23 08:40:11;;;;;;;14.48;4.43;;;8.00;99.90;;;;;;4234339;27;20570;-87
2022/11/23 08:42:12;;;;;;;13.13;4.63;;;8.00;99.90;;;;;;4231392;28;20600;-88
2022/11/23 08:44:13;;;;;;;9.00;3.92;;;8.10;99.90;;;;;;4226844;28;20035;-87
2022/11/23 08:46:13;;;;;;;8.73;3.88;;;8.10;99.90;;;;;;4247161;27;20067;-87
2022/11/23 08:48:14;;;;;;;15.45;4.43;;;8.00;99.90;;;;;;4248408;27;20091;-87
2022/11/23 08:50:15;;;;;;;12.98;4.47;;;8.10;99.90;;;;;;4228373;28;20050;-87
2022/11/23 08:52:16;;;;;;;11.93;4.18;;;8.00;99.90;;;;;;4230593;28;20102;-87
2022/11/23 08:54:17;;;;;;;10.23;4.43;;;8.00;99.90;;;;;;4231362;28;20051;-88
2022/11/23 08:56:18;;;;;;;9.30;3.67;;;8.00;99.90;;;;;;4243950;27;20446;-87
2022/11/23 08:58:19;;;;;;;9.95;3.90;;;8.40;99.90;;;;;;4227966;28;20044;-88
2022/11/23 09:00:20;;;;;;;11.32;3.80;;;8.10;99.90;;;;;;4219315;28;20485;-87
2022/11/23 09:02:20;;;;;;;10.23;4.22;;;8.10;99.90;;;;;;4227530;28;20048;-87
2022/11/23 09:04:21;;;;;;;10.55;3.97;;;8.50;99.90;;;;;;4253450;27;20451;-88
2022/11/23 09:06:27;;;;;;;16.27;3.75;;;8.10;99.90;;;;;;4231295;28;20102;-87
2022/11/23 09:08:28;;;;;;;10.38;3.83;;;8.20;99.90;;;;;;4218821;28;20051;-87
2022/11/23 09:10:29;;;;;;;13.73;3.80;;;8.30;99.90;;;;;;4223235;28;20534;-86
2022/11/23 09:12:30;;;;;;;15.73;3.65;;;8.70;99.90;;;;;;4220234;28;20043;-86
2022/11/23 09:14:31;;;;;;;9.18;3.90;;;8.40;99.90;;;;;;4232325;28;20489;-86
2022/11/23 09:16:34;;;;;;;9.20;3.65;;;8.40;99.90;;;;;;4213177;28;20094;-88
2022/11/23 09:18:35;;;;;;;10.38;3.28;;;8.50;99.90;;;;;;4230141;28;20582;-88
2022/11/23 09:20:39;;;;;;;11.82;3.42;;;8.50;99.90;;;;;;4220357;28;20079;-87
2022/11/23 09:22:40;;;;;;;11.45;3.35;;;8.50;99.90;;;;;;4225926;28;20052;-87
2022/11/23 09:24:41;;;;;;;11.07;4.78;;;8.50;99.90;;;;;;4222476;28;20051;-88
2022/11/23 09:26:42;;;;;;;14.50;4.38;;;8.50;99.90;;;;;;4221679;28;20436;-88
2022/11/23 09:28:43;;;;;;;12.25;3.63;;;8.40;99.90;;;;;;4209977;28;20059;-87
2022/11/23 09:30:46;;;;;;;10.85;4.03;;;8.50;99.90;;;;;;4250134;27;20054;-87
2022/11/23 09:32:47;;;;;;;12.43;3.40;;;8.40;99.90;;;;;;4203243;28;20190;-87
2022/11/23 09:34:47;;;;;;;19.38;4.30;;;8.90;99.90;;;;;;4213122;28;20542;-88
2022/11/23 09:36:48;;;;;;;11.65;3.28;;;8.50;99.90;;;;;;4217329;28;20626;-88
2022/11/23 09:38:49;;;;;;;11.70;3.38;;;8.50;99.90;;;;;;4219980;28;20052;-87
2022/11/23 09:41:01;;;;;;;13.15;3.70;;;8.60;99.90;;;;;;4208215;28;20067;-87
2022/11/23 09:43:07;;;;;;;10.75;4.55;;;8.60;99.90;;;;;;4228860;28;20127;-87
2022/11/23 09:45:16;;;;;;;15.45;3.67;;;8.70;99.90;;;;;;4216901;28;20044;-87
2022/11/23 09:47:28;;;;;;;12.02;3.88;;;8.80;99.90;;;;;;4224813;28;20303;-87
2022/11/23 09:50:06;;;;;;;10.90;3.15;;;8.70;99.90;;;;;;4204988;28;20055;-87
2022/11/23 09:52:15;;;;;;;12.35;3.13;;;8.80;99.90;;;;;;4243360;27;20051;-86
2022/11/23 09:54:19;;;;;;;10.48;3.35;;;8.80;99.90;;;;;;4240517;27;20043;-87
2022/11/23 09:56:35;;;;;;;11.30;2.95;;;8.80;99.90;;;;;;4211436;28;20097;-85
2022/11/23 09:58:39;;;;;;;11.52;2.63;;;8.90;99.90;;;;;;4230616;28;20161;-86
2022/11/23 10:00:52;;;;;;;14.48;2.72;;;8.90;99.90;;;;;;4215349;28;20480;-86
2022/11/23 10:02:54;;;;;;;8.95;2.72;;;8.90;99.90;;;;;;4213350;28;20122;-85
2022/11/23 10:04:58;;;;;;;9.45;3.03;;;8.90;99.90;;;;;;4223791;28;20111;-85
2022/11/23 10:07:25;;;;;;;10.90;2.80;;;8.90;99.90;;;;;;4230053;28;20039;-87
2022/11/23 10:09:52;;;;;;;11.70;3.97;;;9.00;99.90;;;;;;4215183;28;20048;-87
2022/11/23 10:12:04;;;;;;;9.63;4.30;;;9.00;99.90;;;;;;4234511;28;20039;-86
2022/11/23 10:14:35;;;;;;;7.72;2.30;;;9.00;99.90;;;;;;4229641;28;20054;-87
2022/11/23 10:16:45;;;;;;;8.07;2.42;;;9.00;99.90;;;;;;4230113;28;20075;-86
2022/11/23 10:19:02;;;;;;;12.10;3.03;;;9.00;99.90;;;;;;4223855;28;20131;-87
2022/11/23 10:21:15;;;;;;;12.45;3.53;;;8.90;99.90;;;;;;4215370;28;20538;-87
2022/11/23 10:23:41;;;;;;;12.68;2.72;;;8.90;99.90;;;;;;4231252;28;20044;-87
2022/11/23 10:25:48;;;;;;;9.27;2.30;;;8.90;99.90;;;;;;4231831;28;20073;-87
2022/11/23 10:27:53;;;;;;;11.77;2.03;;;8.90;99.90;;;;;;4253219;27;20491;-86
2022/11/23 10:29:55;;;;;;;6.32;2.67;;;9.00;99.90;;;;;;4233843;28;20051;-86
2022/11/23 10:31:57;;;;;;;11.77;3.15;;;8.90;99.90;;;;;;4234261;28;20043;-85
2022/11/23 10:34:13;;;;;;;10.65;2.70;;;8.90;99.90;;;;;;4251873;27;20047;-87
2022/11/23 10:36:15;;;;;;;12.88;2.72;;;8.90;99.90;;;;;;4212229;28;20048;-88
2022/11/23 10:38:18;;;;;;;5.13;2.60;;;8.90;99.90;;;;;;4213764;28;20040;-86
2022/11/23 10:40:25;;;;;;;10.20;3.05;;;8.90;99.90;;;;;;4217282;28;20052;-88
2022/11/23 10:42:46;;;;;;;11.77;2.92;;;8.90;99.90;;;;;;4235194;28;20535;-87
2022/11/23 10:44:49;;;;;;;13.23;3.03;;;8.90;99.90;;;;;;4217552;28;20634;-87
2022/11/23 10:46:49;;;;;;;11.02;2.40;;;8.90;99.90;;;;;;4229123;28;20048;-88
2022/11/23 10:48:52;;;;;;;17.80;3.35;;;8.90;99.90;;;;;;4237736;28;20063;-87
2022/11/23 10:50:53;;;;;;;9.55;3.88;;;8.90;99.90;;;;;;4238593;28;20067;-87
2022/11/23 10:53:00;;;;;;;8.45;2.90;;;8.90;99.90;;;;;;4237554;28;20423;-87
2022/11/23 10:55:05;;;;;;;14.30;4.10;;;8.90;99.90;;;;;;4220784;28;20127;-85
2022/11/23 10:57:41;;;;;;;7.65;2.17;;;8.90;99.90;;;;;;4236491;28;20419;-87
2022/11/23 10:59:41;;;;;;;8.90;2.20;;;8.80;99.90;;;;;;4220161;28;20043;-86
2022/11/23 11:02:10;;;;;;;12.60;3.22;;;8.90;99.90;;;;;;4226640;28;20047;-85
2022/11/23 11:04:20;;;;;;;;;;;8.80;99.90;;;;;;4254446;27;20119;-86
2022/11/23 11:06:24;;;;;;;6.85;2.28;;;8.80;99.90;;;;;;4236317;28;19920;-87
2022/11/23 11:08:34;;;;;;;10.73;3.28;;;8.80;99.90;;;;;;4235076;28;20527;-86
2022/11/23 11:10:34;;;;;;;;;;;8.80;99.90;;;;;;4217449;28;20424;-86
2022/11/23 11:12:50;;;;;;;11.25;2.25;;;9.20;99.90;;;;;;4234888;28;19926;-86
2022/11/23 11:15:15;;;;;;;8.73;2.20;;;8.80;99.90;;;;;;4253793;27;20089;-86
2022/11/23 11:17:27;;;;;;;8.70;2.20;;;8.80;99.90;;;;;;4235888;28;20048;-85
2022/11/23 11:19:32;;;;;;;11.52;2.55;;;8.90;99.90;;;;;;4233661;28;20047;-85
2022/11/23 11:21:39;;;;;;;13.02;2.45;;;8.90;99.90;;;;;;4234979;28;20129;-86
2022/11/23 11:23:40;;;;;;;8.15;2.47;;;8.90;99.90;;;;;;4251725;27;20045;-85
2022/11/23 11:25:42;;;;;;;16.52;2.78;;;9.00;99.90;;;;;;4252287;27;20078;-86
2022/11/23 11:27:50;;;;;;;9.75;2.13;;;9.00;99.90;;;;;;4216813;28;20043;-87
2022/11/23 11:29:55;;;;;;;5.10;1.87;;;9.10;99.90;;;;;;4234637;28;20059;-86
2022/11/23 11:32:08;;;;;;;12.40;2.50;;;9.30;99.90;;;;;;4233871;28;20130;-87
2022/11/23 11:34:24;;;;;;;15.82;2.38;;;9.50;99.90;;;;;;4234728;28;20051;-86
2022/11/23 11:36:29;;;;;;;8.10;2.15;;;9.50;99.90;;;;;;4234331;28;20589;-86